createdAt,value
2023-04-06T00:02:54.532Z,14.60
2023-04-06T00:07:04.846Z,15.30
2023-04-06T00:11:41.838Z,15.03
2023-04-06T00:16:17.308Z,16.17
2023-04-06T00:20:51.908Z,16.33
2023-04-06T00:24:54.935Z,15.90
2023-04-06T00:28:59.662Z,16.73
2023-04-06T00:33:05.129Z,14.73
2023-04-06T00:37:08.350Z,16.20
2023-04-06T00:41:12.317Z,13.63
2023-04-06T00:45:15.824Z,14.27
2023-04-06T00:49:20.352Z,19.73
2023-04-06T00:53:23.296Z,14.90
2023-04-06T00:57:27.907Z,14.93
2023-04-06T01:01:33.408Z,15.10
2023-04-06T01:05:43.620Z,14.07
2023-04-06T01:09:55.494Z,13.70
2023-04-06T01:14:02.493Z,13.00
2023-04-06T01:18:18.149Z,14.63
2023-04-06T01:22:33.234Z,11.83
2023-04-06T01:26:40.810Z,12.80
2023-04-06T01:30:46.513Z,12.70
2023-04-06T01:35:06.138Z,15.60
2023-04-06T01:39:14.067Z,13.13
2023-04-06T01:43:17.568Z,13.73
2023-04-06T01:47:35.651Z,11.97
2023-04-06T01:51:39.514Z,14.00
2023-04-06T01:55:48.409Z,13.07
2023-04-06T02:00:07.773Z,12.10
2023-04-06T02:04:17.680Z,13.53
2023-04-06T02:08:23.420Z,13.27
2023-04-06T02:12:27.828Z,12.27
2023-04-06T02:16:31.526Z,10.97
2023-04-06T02:20:34.978Z,12.37
2023-04-06T02:24:37.945Z,13.67
2023-04-06T02:28:42.326Z,12.30
2023-04-06T02:32:45.548Z,10.77
2023-04-06T02:36:49.667Z,13.20
2023-04-06T02:40:52.701Z,12.13
2023-04-06T02:45:00.464Z,11.70
2023-04-06T02:49:08.775Z,12.23
2023-04-06T02:53:13.110Z,14.20
2023-04-06T02:57:16.966Z,11.57
2023-04-06T03:01:23.542Z,11.63
2023-04-06T03:05:33.043Z,12.70
2023-04-06T03:09:39.375Z,13.53
2023-04-06T03:13:42.413Z,13.43
2023-04-06T03:17:48.367Z,12.70
2023-04-06T03:22:07.773Z,11.47
2023-04-06T03:26:11.690Z,12.80
2023-04-06T03:30:15.088Z,12.50
2023-04-06T03:34:19.344Z,12.77
2023-04-06T03:38:23.146Z,13.33
2023-04-06T03:42:26.094Z,14.43
2023-04-06T03:46:33.750Z,13.37
2023-04-06T03:50:38.692Z,13.60
2023-04-06T03:54:42.473Z,13.73
2023-04-06T03:58:50.456Z,13.00
2023-04-06T04:02:53.810Z,13.23
2023-04-06T04:06:58.967Z,12.43
2023-04-06T04:11:01.882Z,15.63
2023-04-06T04:15:06.654Z,13.50
2023-04-06T04:19:10.294Z,13.13
2023-04-06T04:23:14.957Z,13.80
2023-04-06T04:27:18.170Z,12.70
2023-04-06T04:31:23.558Z,13.77
2023-04-06T04:35:32.486Z,13.73
2023-04-06T04:39:37.051Z,14.97
2023-04-06T04:43:43.352Z,13.97
2023-04-06T04:47:48.761Z,13.60
2023-04-06T04:51:54.295Z,17.10
2023-04-06T04:56:31.776Z,20.90
2023-04-06T05:00:45.617Z,17.60
2023-04-06T05:04:48.681Z,15.53
2023-04-06T05:08:57.548Z,15.20
2023-04-06T05:13:02.242Z,17.03
2023-04-06T05:17:05.758Z,15.40
2023-04-06T05:21:09.041Z,15.40
2023-04-06T05:25:27.167Z,17.47
2023-04-06T05:29:35.582Z,16.50
2023-04-06T05:33:39.154Z,15.70
2023-04-06T05:37:46.313Z,17.50
2023-04-06T05:41:50.702Z,17.57
2023-04-06T05:46:05.641Z,17.30
2023-04-06T05:50:10.029Z,14.50
2023-04-06T05:54:16.319Z,17.07
2023-04-06T05:58:20.715Z,14.17
2023-04-06T06:02:28.431Z,15.87
2023-04-06T06:06:32.802Z,17.30
2023-04-06T06:11:01.689Z,15.63
2023-04-06T06:15:05.114Z,16.70
2023-04-06T06:19:13.974Z,19.80
2023-04-06T06:23:17.844Z,19.17
2023-04-06T06:27:21.412Z,19.43
2023-04-06T06:31:25.579Z,18.30
2023-04-06T06:35:30.018Z,16.63
2023-04-06T06:39:33.464Z,18.20
2023-04-06T06:43:36.787Z,20.23
2023-04-06T06:48:02.904Z,19.23
2023-04-06T06:52:36.438Z,19.50
2023-04-06T06:57:23.718Z,18.93
2023-04-06T07:40:17.142Z,22.10
2023-04-06T07:44:51.713Z,19.00
2023-04-06T07:49:10.653Z,17.87
2023-04-06T07:53:54.330Z,18.37
2023-04-06T07:58:25.712Z,17.87
2023-04-06T08:02:34.165Z,19.77
2023-04-06T08:06:37.505Z,18.27
2023-04-06T08:10:40.601Z,18.23
2023-04-06T08:14:43.705Z,18.63
2023-04-06T08:18:48.082Z,19.47
2023-04-06T08:22:53.451Z,19.03
2023-04-06T08:26:56.704Z,16.53
2023-04-06T08:30:59.653Z,18.27
2023-04-06T08:35:04.202Z,18.50
2023-04-06T08:39:07.401Z,18.00
2023-04-06T08:43:14.784Z,17.63
2023-04-06T08:47:18.155Z,18.00
2023-04-06T08:51:24.935Z,21.37
2023-04-06T08:55:27.993Z,18.20
2023-04-06T08:59:31.104Z,17.70
2023-04-06T09:03:36.768Z,19.10
2023-04-06T09:07:41.327Z,20.57
2023-04-06T09:11:48.660Z,19.70
2023-04-06T09:16:01.479Z,19.50
2023-04-06T09:20:05.708Z,19.70
2023-04-06T09:24:11.057Z,18.90
2023-04-06T09:28:14.524Z,21.03
2023-04-06T09:32:18.530Z,22.30
2023-04-06T09:36:21.755Z,20.83
2023-04-06T09:40:26.159Z,21.27
2023-04-06T09:44:29.272Z,21.33
2023-04-06T09:48:35.516Z,20.20
2023-04-06T09:52:42.547Z,22.50
2023-04-06T09:56:49.181Z,19.93
2023-04-06T10:01:10.747Z,22.07
2023-04-06T10:05:21.737Z,23.10
2023-04-06T10:09:30.417Z,22.73
2023-04-06T10:13:35.517Z,20.07
2023-04-06T10:17:38.394Z,24.67
2023-04-06T10:21:45.467Z,20.63
2023-04-06T10:25:55.686Z,21.70
2023-04-06T10:30:05.418Z,21.77
2023-04-06T10:34:09.688Z,21.53
2023-04-06T10:38:15.041Z,24.00
2023-04-06T10:42:18.187Z,21.33
2023-04-06T10:46:27.391Z,20.17
2023-04-06T10:50:31.784Z,21.17
2023-04-06T10:54:35.529Z,18.70
2023-04-06T10:58:39.835Z,19.77
2023-04-06T11:02:44.451Z,19.87
2023-04-06T11:06:49.558Z,20.20
2023-04-06T11:10:52.867Z,20.77
2023-04-06T11:15:03.435Z,20.47
2023-04-06T11:19:08.152Z,21.17
2023-04-06T11:23:11.144Z,22.17
2023-04-06T11:27:16.005Z,21.30
2023-04-06T11:31:19.079Z,24.57
2023-04-06T11:35:25.207Z,21.27
2023-04-06T11:39:29.457Z,20.70
2023-04-06T11:43:33.173Z,21.53
2023-04-06T11:47:38.430Z,22.00
2023-04-06T11:51:42.733Z,22.40
2023-04-06T11:55:47.741Z,20.93
2023-04-06T11:59:50.811Z,22.70
2023-04-06T12:03:54.133Z,22.50
2023-04-06T12:08:01.072Z,21.27
2023-04-06T12:12:06.357Z,22.10
2023-04-06T12:16:09.570Z,23.13
2023-04-06T12:20:22.535Z,20.70
2023-04-06T12:24:31.065Z,21.33
2023-04-06T12:29:05.971Z,21.77
2023-04-06T12:33:33.540Z,24.37
2023-04-06T12:37:37.725Z,23.83
2023-04-06T12:41:47.868Z,21.10
2023-04-06T12:46:05.561Z,22.70
2023-04-06T12:50:24.816Z,22.73
2023-04-06T12:54:29.598Z,20.00
2023-04-06T12:58:41.199Z,28.07
2023-04-06T13:02:55.966Z,22.53
2023-04-06T13:07:09.531Z,22.67
2023-04-06T13:11:25.069Z,21.17
2023-04-06T13:15:35.813Z,21.97
2023-04-06T13:19:40.499Z,23.27
2023-04-06T13:23:43.767Z,23.10
2023-04-06T13:27:49.756Z,25.37
2023-04-06T13:31:54.435Z,22.03
2023-04-06T13:35:58.382Z,21.83
2023-04-06T13:40:01.503Z,23.53
2023-04-06T13:44:05.101Z,21.87
2023-04-06T13:48:10.022Z,19.80
2023-04-06T13:52:12.915Z,21.97
2023-04-06T13:56:15.828Z,16.33
2023-04-06T14:00:19.279Z,17.93
2023-04-06T14:04:23.471Z,17.90
2023-04-06T14:08:26.378Z,15.63
2023-04-06T14:12:29.402Z,15.30
2023-04-06T14:16:32.854Z,17.67
2023-04-06T14:20:37.482Z,17.77
2023-04-06T14:24:42.030Z,17.07
2023-04-06T14:28:45.400Z,19.67
2023-04-06T14:32:48.392Z,18.97
2023-04-06T14:36:53.090Z,17.40
2023-04-06T14:40:56.927Z,16.87
2023-04-06T14:45:01.658Z,19.33
2023-04-06T14:49:04.591Z,18.17
2023-04-06T14:53:09.337Z,16.50
2023-04-06T14:57:12.802Z,19.43
2023-04-06T15:01:16.278Z,17.97
2023-04-06T15:05:19.639Z,16.87
2023-04-06T15:09:24.223Z,57.00
2023-04-06T15:13:27.383Z,20.37
2023-04-06T15:17:30.551Z,17.20
2023-04-06T15:21:33.610Z,19.53
2023-04-06T15:25:41.933Z,21.30
2023-04-06T15:29:45.205Z,17.40
2023-04-06T15:33:48.307Z,16.87
2023-04-06T15:37:54.748Z,18.47
2023-04-06T15:41:59.013Z,18.60
2023-04-06T15:46:03.263Z,18.57
2023-04-06T15:50:08.395Z,19.07
2023-04-06T15:54:11.300Z,15.57
2023-04-06T15:58:15.942Z,20.77
2023-04-06T16:02:20.305Z,17.43
2023-04-06T16:06:25.253Z,15.43
2023-04-06T16:10:28.207Z,17.17
2023-04-06T16:14:32.632Z,16.67
2023-04-06T16:18:39.071Z,16.83
2023-04-06T16:22:41.957Z,17.70
2023-04-06T16:26:46.549Z,16.47
2023-04-06T16:30:50.650Z,16.50
2023-04-06T16:34:53.927Z,17.57
2023-04-06T16:38:58.051Z,21.50
2023-04-06T16:43:01.437Z,15.43
2023-04-06T16:47:07.016Z,34.53
2023-04-06T16:51:11.518Z,16.80
2023-04-06T16:55:14.559Z,14.10
2023-04-06T16:59:17.281Z,14.63
2023-04-06T17:03:21.837Z,12.83
2023-04-06T17:07:26.529Z,13.43
2023-04-06T17:11:43.750Z,13.80
2023-04-06T17:15:53.590Z,13.40
2023-04-06T17:19:59.926Z,12.43
2023-04-06T17:24:03.056Z,15.93
2023-04-06T17:28:06.531Z,12.43
2023-04-06T17:32:09.608Z,16.67
2023-04-06T17:36:30.424Z,15.43
2023-04-06T17:40:52.057Z,17.97
2023-04-06T17:44:55.174Z,15.63
2023-04-06T17:48:58.428Z,17.10
2023-04-06T17:53:03.361Z,17.00
2023-04-06T17:57:07.704Z,17.50
2023-04-06T18:01:11.793Z,18.53
2023-04-06T18:05:14.689Z,18.67
2023-04-06T18:09:19.040Z,21.03
2023-04-06T18:13:22.600Z,20.07
2023-04-06T18:17:27.744Z,22.97
2023-04-06T18:21:31.620Z,22.60
2023-04-06T18:25:39.911Z,23.03
2023-04-06T18:29:45.374Z,15.73
2023-04-06T18:33:48.572Z,14.67
2023-04-06T18:37:51.548Z,14.90
2023-04-06T18:41:55.971Z,12.10
2023-04-06T18:46:00.544Z,14.93
2023-04-06T18:50:04.272Z,14.00
2023-04-06T18:54:08.846Z,15.27
2023-04-06T18:58:14.623Z,14.53
2023-04-06T19:02:17.545Z,13.63
2023-04-06T19:06:21.613Z,12.07
2023-04-06T19:10:25.636Z,12.23
2023-04-06T19:14:33.788Z,11.90
2023-04-06T19:18:38.177Z,12.33
2023-04-06T19:22:41.735Z,12.50
2023-04-06T19:26:53.841Z,12.97
2023-04-06T19:31:19.359Z,12.03
2023-04-06T19:35:24.157Z,10.80
2023-04-06T19:39:27.617Z,11.50
2023-04-06T19:43:36.395Z,11.10
2023-04-06T19:47:40.859Z,10.93
2023-04-06T19:51:43.900Z,11.37
2023-04-06T19:55:46.919Z,11.87
2023-04-06T19:59:49.701Z,13.23
2023-04-06T20:03:54.082Z,12.30
2023-04-06T20:07:57.689Z,13.80
2023-04-06T20:12:00.725Z,14.43
2023-04-06T20:16:03.974Z,13.57
2023-04-06T20:20:09.410Z,14.17
2023-04-06T20:24:12.510Z,15.13
2023-04-06T20:28:15.485Z,13.73
2023-04-06T20:32:20.751Z,13.87
2023-04-06T20:36:25.266Z,14.20
2023-04-06T20:40:28.353Z,15.07
2023-04-06T20:44:32.182Z,14.70
2023-04-06T20:48:36.148Z,15.20
2023-04-06T20:52:40.373Z,17.17
2023-04-06T20:56:43.534Z,16.17
2023-04-06T21:00:46.283Z,16.53
2023-04-06T21:04:49.181Z,17.77
2023-04-06T21:08:59.334Z,18.27
2023-04-06T21:13:11.137Z,20.73
2023-04-06T21:17:16.221Z,19.70
2023-04-06T21:21:18.976Z,17.37
2023-04-06T21:25:24.219Z,22.50
2023-04-06T21:29:27.783Z,20.37
2023-04-06T21:33:31.582Z,18.63
2023-04-06T21:37:34.663Z,18.03
2023-04-06T21:41:40.360Z,20.50
2023-04-06T21:45:50.065Z,19.83
2023-04-06T21:49:52.838Z,21.27
2023-04-06T21:53:56.419Z,20.43
2023-04-06T21:58:00.919Z,22.03
2023-04-06T22:02:03.767Z,19.70
2023-04-06T22:06:08.053Z,18.60
2023-04-06T22:10:11.551Z,23.03
2023-04-06T22:14:18.538Z,22.33
2023-04-06T22:18:23.350Z,23.80
2023-04-06T22:22:26.411Z,22.27
2023-04-06T22:26:29.367Z,24.10
2023-04-06T22:30:33.967Z,24.17
2023-04-06T22:34:36.834Z,19.90
2023-04-06T22:38:41.457Z,21.53
2023-04-06T22:42:44.544Z,22.77
2023-04-06T22:46:48.777Z,21.07
2023-04-06T22:50:51.575Z,19.70
2023-04-06T22:54:54.627Z,21.20
2023-04-06T22:58:57.366Z,20.03
2023-04-06T23:03:01.805Z,21.13
2023-04-06T23:07:35.620Z,21.47
2023-04-06T23:11:38.499Z,17.90
2023-04-06T23:15:59.665Z,20.27
2023-04-06T23:20:03.830Z,19.80
2023-04-06T23:24:07.953Z,19.73
2023-04-06T23:28:12.970Z,19.07
2023-04-06T23:32:16.186Z,20.00
2023-04-06T23:36:20.689Z,21.20
2023-04-06T23:40:24.933Z,24.13
2023-04-06T23:44:30.781Z,19.67
2023-04-06T23:48:33.516Z,18.13
2023-04-06T23:52:37.766Z,20.47
2023-04-06T23:56:41.699Z,20.30
